Time;durP1;ratioP1;P1;durP2;ratioP2;P2;SDS_P1;SDS_P2;PMS_P1;PMS_P2;Temp;Humidity;BMP_temperature;BMP_pressure;BME280_temperature;BME280_humidity;BME280_pressure;Samples;Min_cycle;Max_cycle;Signal;HPM_P1;HPM_P2
2023/02/26 00:01:11;;;;;;;1.20;0.73;;;-0.20;99.90;;;;;;5042060;28;20223;-55
2023/02/26 00:03:38;;;;;;;1.00;0.73;;;-0.30;99.90;;;;;;5041733;28;20209;-55
2023/02/26 00:06:05;;;;;;;2.73;0.83;;;-0.20;99.90;;;;;;5057781;28;20230;-55
2023/02/26 00:08:32;;;;;;;3.23;0.80;;;-0.30;99.90;;;;;;5042451;28;20925;-53
2023/02/26 00:11:00;;;;;;;3.83;0.80;;;-0.30;99.90;;;;;;5041977;28;20224;-56
2023/02/26 00:13:28;;;;;;;1.50;0.90;;;-0.30;99.90;;;;;;5040900;28;20272;-56
2023/02/26 00:15:59;;;;;;;4.67;1.00;;;-0.30;99.90;;;;;;5043516;28;20207;-55
2023/02/26 00:18:49;;;;;;;0.73;0.60;;;-0.30;99.90;;;;;;5034388;28;20686;-56
2023/02/26 00:21:17;;;;;;;2.80;0.70;;;-0.30;99.90;;;;;;5043067;28;20221;-50
2023/02/26 00:23:44;;;;;;;2.23;0.70;;;-0.30;99.90;;;;;;5046107;28;20198;-52
2023/02/26 00:26:11;;;;;;;3.67;0.90;;;-0.30;99.90;;;;;;5045102;28;20535;-52
2023/02/26 00:28:38;;;;;;;1.27;0.70;;;-0.30;99.90;;;;;;5044950;28;20468;-54
2023/02/26 00:31:10;;;;;;;2.70;0.90;;;-0.30;99.90;;;;;;5042727;28;20217;-55
2023/02/26 00:33:38;;;;;;;2.73;0.90;;;-0.30;99.90;;;;;;5027957;28;20196;-54
2023/02/26 00:36:18;;;;;;;4.53;0.70;;;-0.40;99.90;;;;;;5047775;28;20315;-52
2023/02/26 00:38:52;;;;;;;0.90;0.70;;;-0.40;99.90;;;;;;5050545;28;20270;-53
2023/02/26 00:41:20;;;;;;;2.13;0.80;;;-0.40;99.90;;;;;;5042603;28;20736;-53
2023/02/26 00:43:47;;;;;;;3.10;0.70;;;-0.40;99.90;;;;;;5039608;28;20205;-51
2023/02/26 00:46:25;;;;;;;1.90;0.50;;;-0.40;99.90;;;;;;5043513;28;20222;-55
2023/02/26 00:49:00;;;;;;;4.10;1.07;;;-0.40;99.90;;;;;;5039768;28;20217;-51
2023/02/26 00:51:32;;;;;;;3.23;1.00;;;-0.40;99.90;;;;;;5038316;28;20229;-55
2023/02/26 00:54:04;;;;;;;1.33;0.80;;;-0.40;99.90;;;;;;5042937;28;20272;-51
2023/02/26 00:56:31;;;;;;;1.53;0.80;;;-0.40;99.90;;;;;;5045806;28;20201;-55
2023/02/26 00:58:58;;;;;;;1.13;0.60;;;-0.40;99.90;;;;;;5042228;28;20227;-54
2023/02/26 01:01:26;;;;;;;1.53;0.97;;;-0.40;99.90;;;;;;5041107;28;20225;-56
2023/02/26 01:03:53;;;;;;;1.60;0.70;;;-0.30;99.90;;;;;;5046756;28;20198;-51
2023/02/26 01:06:21;;;;;;;2.67;0.70;;;-0.30;99.90;;;;;;5036538;28;20706;-56
2023/02/26 01:08:53;;;;;;;5.57;1.43;;;-0.30;99.90;;;;;;5053031;28;20255;-56
2023/02/26 01:11:20;;;;;;;1.20;0.80;;;-0.30;99.90;;;;;;5041173;28;20593;-53
2023/02/26 01:13:48;;;;;;;1.97;1.17;;;-0.20;99.90;;;;;;5035260;28;20211;-56
2023/02/26 01:16:21;;;;;;;1.93;0.90;;;-0.20;99.90;;;;;;5038788;28;20199;-54
2023/02/26 01:18:54;;;;;;;3.03;0.73;;;-0.20;99.90;;;;;;5043257;28;20209;-55
2023/02/26 01:21:29;;;;;;;1.73;0.70;;;-0.20;99.90;;;;;;5038758;28;20739;-54
2023/02/26 01:23:56;;;;;;;1.10;0.90;;;-0.20;99.90;;;;;;5049341;28;20253;-54
2023/02/26 01:26:26;;;;;;;1.20;0.70;;;-0.20;99.90;;;;;;5048446;28;20210;-55
2023/02/26 01:29:15;;;;;;;2.37;0.67;;;-0.10;99.90;;;;;;5043238;28;20793;-54
2023/02/26 01:31:49;;;;;;;2.30;0.70;;;-0.20;99.90;;;;;;5049488;28;20221;-55
2023/02/26 01:34:19;;;;;;;3.77;0.97;;;-0.20;99.90;;;;;;5045698;28;20197;-52
2023/02/26 01:36:53;;;;;;;1.80;0.63;;;-0.20;99.90;;;;;;5039625;28;20213;-55
2023/02/26 01:39:28;;;;;;;3.47;0.90;;;-0.10;99.90;;;;;;5044852;28;20208;-54
2023/02/26 01:41:58;;;;;;;1.27;0.70;;;-0.20;99.90;;;;;;5044584;28;20244;-54
2023/02/26 01:44:31;;;;;;;1.80;0.77;;;-0.20;99.90;;;;;;5044011;28;20201;-52
2023/02/26 01:47:16;;;;;;;1.00;0.90;;;-0.20;99.90;;;;;;5045286;28;20329;-54
2023/02/26 01:49:45;;;;;;;2.17;0.67;;;-0.20;99.90;;;;;;5046669;28;20294;-53
2023/02/26 01:52:56;;;;;;;5.97;0.80;;;-0.30;99.90;;;;;;5032457;28;20203;-53
2023/02/26 01:55:26;;;;;;;1.03;0.87;;;-0.30;99.90;;;;;;5047186;28;20579;-52
2023/02/26 01:57:56;;;;;;;1.73;0.70;;;-0.30;99.90;;;;;;5045963;28;20297;-57
2023/02/26 02:00:46;;;;;;;2.13;0.90;;;-0.40;99.90;;;;;;5059365;28;20247;-57
2023/02/26 02:03:12;;;;;;;0.93;0.77;;;-0.40;99.90;;;;;;5051279;28;20893;-57
2023/02/26 02:05:45;;;;;;;2.27;0.80;;;-0.40;99.90;;;;;;5038698;28;20594;-54
2023/02/26 02:08:12;;;;;;;2.23;0.90;;;-0.50;99.90;;;;;;5049824;28;20206;-56
2023/02/26 02:10:43;;;;;;;2.97;0.70;;;-0.50;99.90;;;;;;5044391;28;20252;-55
2023/02/26 02:13:22;;;;;;;4.67;0.60;;;-0.50;99.90;;;;;;5041894;28;20585;-57
2023/02/26 02:16:02;;;;;;;2.43;0.90;;;-0.50;99.90;;;;;;5043657;28;20209;-56
2023/02/26 02:18:38;;;;;;;1.93;1.00;;;-0.60;99.90;;;;;;5042088;28;20232;-56
2023/02/26 02:21:38;;;;;;;3.40;0.97;;;-0.60;99.90;;;;;;5040853;28;20225;-56
2023/02/26 02:24:11;;;;;;;1.00;0.70;;;-0.60;99.90;;;;;;5048790;28;20676;-55
2023/02/26 02:26:52;;;;;;;3.40;0.80;;;-0.60;99.90;;;;;;5046301;28;20733;-54
2023/02/26 02:29:49;;;;;;;1.70;0.70;;;-0.70;99.90;;;;;;5042046;28;20196;-55
2023/02/26 02:32:23;;;;;;;0.80;0.77;;;-0.70;99.90;;;;;;5048739;28;20210;-55
2023/02/26 02:34:54;;;;;;;2.70;0.60;;;-0.70;99.90;;;;;;5062357;28;20206;-52
2023/02/26 02:37:27;;;;;;;1.53;1.10;;;-0.70;99.90;;;;;;5044222;28;20733;-55
2023/02/26 02:39:59;;;;;;;0.67;0.67;;;-0.70;99.90;;;;;;5052722;28;20485;-55
2023/02/26 02:42:31;;;;;;;2.03;0.80;;;-0.70;99.90;;;;;;5043456;28;20209;-54
2023/02/26 02:45:01;;;;;;;1.60;0.60;;;-0.80;99.90;;;;;;5043254;28;20209;-53
2023/02/26 02:47:34;;;;;;;4.00;1.17;;;-0.80;99.90;;;;;;5043326;28;20201;-54
2023/02/26 02:50:07;;;;;;;1.30;0.70;;;-0.80;99.90;;;;;;5046758;28;20312;-49
2023/02/26 02:52:41;;;;;;;2.93;0.80;;;-0.80;99.90;;;;;;5037027;28;20199;-53
2023/02/26 02:55:13;;;;;;;1.60;0.77;;;-0.80;99.90;;;;;;5049998;28;20194;-49
2023/02/26 02:57:44;;;;;;;3.53;0.60;;;-0.80;99.90;;;;;;5041508;28;20228;-54
2023/02/26 03:00:15;;;;;;;5.30;0.97;;;-0.80;99.90;;;;;;5043596;28;20245;-54
2023/02/26 03:02:50;;;;;;;2.37;0.80;;;-0.90;99.90;;;;;;5040405;28;20224;-57
2023/02/26 03:05:17;;;;;;;4.73;0.83;;;-0.90;99.90;;;;;;5043481;28;20653;-57
2023/02/26 03:07:51;;;;;;;2.37;0.73;;;-0.90;99.90;;;;;;5041494;28;20200;-51
2023/02/26 03:10:18;;;;;;;1.00;0.70;;;-0.90;99.90;;;;;;5047224;28;20228;-55
2023/02/26 03:12:45;;;;;;;0.43;0.43;;;-0.90;99.90;;;;;;5046343;28;20191;-55
2023/02/26 03:15:13;;;;;;;3.03;1.20;;;-0.90;99.90;;;;;;5062742;28;20244;-53
2023/02/26 03:17:51;;;;;;;2.43;0.80;;;-0.90;99.90;;;;;;5039280;28;20264;-52
2023/02/26 03:20:24;;;;;;;1.67;0.53;;;-0.90;99.90;;;;;;5052507;28;20215;-53
2023/02/26 03:23:04;;;;;;;2.73;0.80;;;-0.90;99.90;;;;;;5042677;28;20963;-54
2023/02/26 03:25:40;;;;;;;5.50;0.70;;;-0.90;99.90;;;;;;5033369;28;20225;-53
2023/02/26 03:28:14;;;;;;;1.17;0.83;;;-0.90;99.90;;;;;;5050781;28;20804;-54
2023/02/26 03:30:48;;;;;;;0.50;0.50;;;-1.00;99.90;;;;;;5039542;28;20225;-54
2023/02/26 03:33:21;;;;;;;2.40;0.53;;;-1.00;99.90;;;;;;5042653;28;20208;-53
2023/02/26 03:35:53;;;;;;;0.57;0.30;;;-1.00;99.90;;;;;;5040587;28;20332;-55
2023/02/26 03:38:25;;;;;;;2.30;0.67;;;-1.00;99.90;;;;;;5042495;28;20791;-55
2023/02/26 03:40:58;;;;;;;0.93;0.70;;;-1.00;99.90;;;;;;5030016;28;20305;-53
2023/02/26 03:43:32;;;;;;;2.87;0.70;;;-1.00;99.90;;;;;;5047806;28;20210;-56
2023/02/26 03:46:04;;;;;;;0.90;0.90;;;-1.00;99.90;;;;;;5044028;28;20303;-54
2023/02/26 03:48:35;;;;;;;2.17;0.57;;;-1.10;99.90;;;;;;5042864;28;20202;-54
2023/02/26 03:51:07;;;;;;;3.17;0.53;;;-1.00;99.90;;;;;;5050450;28;20286;-53
2023/02/26 03:54:04;;;;;;;2.87;0.60;;;-1.00;99.90;;;;;;5056785;28;20204;-53
2023/02/26 03:56:42;;;;;;;3.30;0.70;;;-1.00;99.90;;;;;;5043756;28;20285;-55
2023/02/26 03:59:28;;;;;;;2.00;0.50;;;-1.10;99.90;;;;;;5047439;28;20267;-53
2023/02/26 04:02:10;;;;;;;1.23;0.50;;;-1.10;99.90;;;;;;5041183;28;20204;-52
2023/02/26 04:04:44;;;;;;;4.43;1.03;;;-1.10;99.90;;;;;;5039520;28;20234;-51
2023/02/26 04:07:13;;;;;;;3.27;0.70;;;-1.10;99.90;;;;;;5042726;28;20294;-51
2023/02/26 04:09:41;;;;;;;2.43;0.60;;;-1.10;99.90;;;;;;5038770;28;20209;-56
2023/02/26 04:12:11;;;;;;;2.70;0.50;;;-1.10;99.90;;;;;;5042155;28;20209;-54
2023/02/26 04:14:41;;;;;;;0.53;0.50;;;-1.20;99.90;;;;;;5038225;28;20871;-52
2023/02/26 04:17:09;;;;;;;2.03;0.73;;;-1.20;99.90;;;;;;5044969;28;20599;-53
2023/02/26 04:19:36;;;;;;;2.07;0.60;;;-1.20;99.90;;;;;;5040532;28;20746;-52
2023/02/26 04:22:05;;;;;;;2.20;0.50;;;-1.20;99.90;;;;;;5047973;28;20215;-49
2023/02/26 04:24:31;;;;;;;1.23;0.80;;;-1.30;99.90;;;;;;5040047;28;20608;-53
2023/02/26 04:27:20;;;;;;;2.00;0.40;;;-1.30;99.90;;;;;;5047885;28;20242;-55
2023/02/26 04:29:47;;;;;;;0.53;0.50;;;-1.30;99.90;;;;;;5039894;28;20212;-52
2023/02/26 04:32:13;;;;;;;2.10;0.60;;;-1.30;99.90;;;;;;5054992;28;20548;-53
2023/02/26 04:34:41;;;;;;;2.60;0.63;;;-1.40;99.90;;;;;;5038129;28;20288;-51
2023/02/26 04:37:10;;;;;;;0.60;0.47;;;-1.40;99.90;;;;;;5038790;28;20211;-55
2023/02/26 04:39:37;;;;;;;2.27;0.50;;;-1.40;99.90;;;;;;5044298;28;20232;-52
2023/02/26 04:42:05;;;;;;;1.60;0.60;;;-1.40;99.90;;;;;;5043602;28;20208;-51
2023/02/26 04:44:34;;;;;;;6.03;1.13;;;-1.50;99.90;;;;;;5033714;28;20787;-51
2023/02/26 04:47:01;;;;;;;2.73;0.60;;;-1.50;99.90;;;;;;5049101;28;20229;-51
2023/02/26 04:49:28;;;;;;;1.60;0.63;;;-1.50;99.90;;;;;;5038231;28;20195;-50
2023/02/26 04:51:55;;;;;;;1.03;0.80;;;-1.50;99.90;;;;;;5040715;28;20220;-52
2023/02/26 04:54:23;;;;;;;2.30;0.60;;;-1.50;99.90;;;;;;5038404;28;20215;-50
2023/02/26 04:56:50;;;;;;;2.43;0.50;;;-1.50;99.90;;;;;;5041682;28;20200;-50
2023/02/26 04:59:17;;;;;;;4.67;0.73;;;-1.60;99.90;;;;;;5035607;28;20202;-55
2023/02/26 05:01:45;;;;;;;1.77;0.50;;;-1.60;99.90;;;;;;5042623;28;20674;-51
2023/02/26 05:04:12;;;;;;;1.83;0.77;;;-1.60;99.90;;;;;;5049120;28;20211;-52
2023/02/26 05:06:41;;;;;;;2.30;0.60;;;-1.60;99.90;;;;;;5038006;28;20227;-52
2023/02/26 05:09:08;;;;;;;1.87;0.60;;;-1.60;99.90;;;;;;5037507;28;20697;-52
2023/02/26 05:11:37;;;;;;;2.73;0.60;;;-1.60;99.90;;;;;;5040312;28;21054;-54
2023/02/26 05:14:06;;;;;;;0.47;0.40;;;-1.60;99.90;;;;;;5036296;28;20626;-55
2023/02/26 05:16:33;;;;;;;1.67;0.73;;;-1.70;99.90;;;;;;5037991;28;20221;-56
2023/02/26 05:19:00;;;;;;;1.70;1.17;;;-1.70;99.90;;;;;;5047659;28;20291;-55
2023/02/26 05:21:27;;;;;;;1.73;0.90;;;-1.70;99.90;;;;;;5042054;28;20252;-55
2023/02/26 05:23:54;;;;;;;1.60;0.53;;;-1.70;99.90;;;;;;5052701;28;20231;-51
2023/02/26 05:26:21;;;;;;;3.10;0.70;;;-1.70;99.90;;;;;;5057666;28;20636;-53
2023/02/26 05:28:49;;;;;;;1.83;0.60;;;-1.70;99.90;;;;;;5060868;28;20210;-55
2023/02/26 05:31:16;;;;;;;1.80;0.80;;;-1.70;99.90;;;;;;5037047;28;20530;-54
2023/02/26 05:33:43;;;;;;;3.70;0.57;;;-1.70;99.90;;;;;;5042801;28;20200;-55
2023/02/26 05:36:10;;;;;;;3.93;0.77;;;-1.70;99.90;;;;;;5039585;28;20667;-51
2023/02/26 05:38:37;;;;;;;1.87;0.70;;;-1.70;99.90;;;;;;5045519;28;20211;-55
2023/02/26 05:41:04;;;;;;;3.30;0.70;;;-1.80;99.90;;;;;;5042164;28;20220;-55
2023/02/26 05:43:32;;;;;;;3.10;0.80;;;-1.80;99.90;;;;;;5039373;28;20483;-53
2023/02/26 05:46:00;;;;;;;2.97;0.87;;;-1.80;99.90;;;;;;5035857;28;20207;-54
2023/02/26 05:48:27;;;;;;;1.63;0.70;;;-1.80;99.90;;;;;;5049295;28;20286;-52
2023/02/26 05:50:54;;;;;;;1.80;0.43;;;-1.80;99.90;;;;;;5045688;28;20239;-55
2023/02/26 05:53:21;;;;;;;0.57;0.40;;;-1.80;99.90;;;;;;5041160;28;20207;-52
2023/02/26 05:55:49;;;;;;;2.20;0.67;;;-1.90;99.90;;;;;;5051421;28;20211;-52
2023/02/26 05:58:16;;;;;;;1.43;0.60;;;-1.90;99.90;;;;;;5059500;28;20201;-54
2023/02/26 06:00:43;;;;;;;4.37;0.53;;;-1.90;99.90;;;;;;5061283;28;20238;-56
2023/02/26 06:03:11;;;;;;;1.20;0.70;;;-1.90;99.90;;;;;;5038787;28;20219;-54
2023/02/26 06:05:38;;;;;;;0.93;0.70;;;-1.90;99.90;;;;;;5041661;28;20195;-50
2023/02/26 06:08:05;;;;;;;0.90;0.70;;;-1.90;99.90;;;;;;5037007;28;20226;-54
2023/02/26 06:10:32;;;;;;;2.13;0.57;;;-1.90;99.90;;;;;;5046612;28;20302;-52
2023/02/26 06:12:59;;;;;;;1.63;0.80;;;-1.90;99.90;;;;;;5041626;28;20208;-55
2023/02/26 06:15:26;;;;;;;2.63;0.50;;;-1.90;99.90;;;;;;5041887;28;20311;-54
2023/02/26 06:17:52;;;;;;;3.63;0.60;;;-1.90;99.90;;;;;;5040142;28;20231;-52
2023/02/26 06:20:21;;;;;;;1.10;0.60;;;-1.90;99.90;;;;;;5047651;28;20223;-53
2023/02/26 06:22:47;;;;;;;1.47;0.70;;;-1.90;99.90;;;;;;5045694;28;20282;-54
2023/02/26 06:25:15;;;;;;;4.87;0.70;;;-2.00;99.90;;;;;;5044677;28;20204;-55
2023/02/26 06:27:42;;;;;;;1.40;0.60;;;-2.00;99.90;;;;;;5045056;28;20261;-50
2023/02/26 06:30:10;;;;;;;1.13;0.70;;;-2.00;99.90;;;;;;5053062;28;20227;-53
2023/02/26 06:32:37;;;;;;;1.40;0.63;;;-1.90;99.90;;;;;;5042385;28;20260;-50
2023/02/26 06:35:05;;;;;;;2.53;0.83;;;-1.90;99.90;;;;;;5047979;28;20300;-56
2023/02/26 06:37:33;;;;;;;2.63;0.60;;;-1.90;99.90;;;;;;5048758;28;20615;-54
2023/02/26 06:39:59;;;;;;;1.87;1.13;;;-1.90;99.90;;;;;;5041339;28;20219;-54
2023/02/26 06:42:27;;;;;;;3.67;0.70;;;-1.90;99.90;;;;;;5052783;28;20199;-50
2023/02/26 06:44:53;;;;;;;2.23;0.63;;;-1.90;99.90;;;;;;5040324;28;20215;-55
2023/02/26 06:47:20;;;;;;;3.10;0.70;;;-1.80;99.90;;;;;;5025470;28;20708;-56
2023/02/26 06:49:47;;;;;;;2.90;0.67;;;-1.80;99.90;;;;;;5045576;28;20291;-55
2023/02/26 06:52:15;;;;;;;2.83;0.77;;;-1.70;99.90;;;;;;5048026;28;20203;-58
2023/02/26 06:54:43;;;;;;;1.87;0.70;;;-1.70;99.90;;;;;;5044071;28;20858;-55
2023/02/26 06:57:10;;;;;;;3.00;0.70;;;-1.60;99.90;;;;;;5045007;28;20203;-59
2023/02/26 06:59:36;;;;;;;2.70;1.00;;;-1.60;99.90;;;;;;5051318;28;20197;-54
2023/02/26 07:02:25;;;;;;;2.97;1.30;;;-1.50;99.90;;;;;;5027343;28;22555;-52
2023/02/26 07:04:52;;;;;;;2.33;1.23;;;-1.50;99.90;;;;;;5054021;28;20207;-53
2023/02/26 07:07:19;;;;;;;1.77;1.10;;;-1.50;99.90;;;;;;5049545;28;20579;-59
2023/02/26 07:09:48;;;;;;;3.00;1.00;;;-1.40;99.90;;;;;;5044006;28;20207;-54
2023/02/26 07:12:15;;;;;;;1.23;0.97;;;-1.40;99.90;;;;;;5051746;28;20210;-59
2023/02/26 07:14:43;;;;;;;2.30;0.90;;;-1.30;99.90;;;;;;5048439;28;20242;-53
2023/02/26 07:17:18;;;;;;;1.47;1.00;;;-1.30;99.90;;;;;;5037703;28;20208;-60
2023/02/26 07:19:45;;;;;;;3.70;1.07;;;-1.30;99.90;;;;;;5052399;28;20217;-56
2023/02/26 07:22:11;;;;;;;3.07;1.10;;;-1.30;99.90;;;;;;5045719;28;20230;-57
2023/02/26 07:24:38;;;;;;;3.47;1.00;;;-1.30;99.90;;;;;;5044464;28;20199;-58
2023/02/26 07:27:06;;;;;;;2.07;1.00;;;-1.20;99.90;;;;;;5045548;28;20226;-54
2023/02/26 07:29:33;;;;;;;2.27;1.00;;;-1.20;99.90;;;;;;5052744;28;20201;-58
2023/02/26 07:32:00;;;;;;;5.40;0.60;;;-1.10;99.90;;;;;;5045446;28;22165;-52
2023/02/26 07:34:27;;;;;;;2.40;1.00;;;-1.10;99.90;;;;;;5037454;28;20209;-58
2023/02/26 07:36:54;;;;;;;0.60;0.60;;;-1.00;99.90;;;;;;5038713;28;20207;-53
2023/02/26 07:39:21;;;;;;;2.13;1.13;;;-1.00;99.90;;;;;;5046599;28;20205;-54
2023/02/26 07:41:48;;;;;;;2.20;0.83;;;-0.90;99.90;;;;;;5048229;28;20213;-52
2023/02/26 07:44:16;;;;;;;1.73;1.00;;;-0.80;99.90;;;;;;5048265;28;20693;-51
2023/02/26 07:46:43;;;;;;;0.70;0.57;;;-0.70;99.90;;;;;;5045593;28;20211;-51
2023/02/26 07:49:10;;;;;;;2.93;0.90;;;-0.60;99.90;;;;;;5035245;28;20212;-56
2023/02/26 07:51:38;;;;;;;2.07;0.90;;;-0.50;99.90;;;;;;5049035;28;20236;-59
2023/02/26 07:54:05;;;;;;;2.80;0.90;;;-0.40;99.90;;;;;;5041759;28;20309;-58
2023/02/26 07:56:32;;;;;;;5.10;1.13;;;-0.30;99.90;;;;;;5048424;28;20199;-60
2023/02/26 07:58:58;;;;;;;2.23;1.03;;;-0.20;99.90;;;;;;5034520;28;20573;-54
2023/02/26 08:01:27;;;;;;;4.57;0.87;;;-0.10;99.90;;;;;;5051837;28;20307;-59
2023/02/26 08:03:53;;;;;;;3.00;0.80;;;0.00;99.90;;;;;;5038630;28;20307;-50
2023/02/26 08:06:20;;;;;;;3.47;0.80;;;0.10;99.90;;;;;;5048848;28;20192;-59
2023/02/26 08:08:46;;;;;;;2.30;1.20;;;0.20;99.90;;;;;;5043935;28;20235;-55
2023/02/26 08:11:13;;;;;;;1.80;0.93;;;0.30;99.90;;;;;;5052309;28;20227;-55
2023/02/26 08:13:40;;;;;;;1.00;0.80;;;0.30;99.90;;;;;;5040471;28;20209;-59
2023/02/26 08:16:06;;;;;;;4.00;1.10;;;0.50;99.90;;;;;;5039829;28;20200;-57
2023/02/26 08:18:35;;;;;;;1.67;0.90;;;0.50;99.90;;;;;;5050795;28;20678;-57
2023/02/26 08:21:01;;;;;;;5.70;1.03;;;0.60;99.90;;;;;;5035518;28;20229;-52
2023/02/26 08:23:28;;;;;;;4.60;1.10;;;0.70;99.90;;;;;;5048076;28;20552;-58
2023/02/26 08:26:01;;;;;;;2.13;1.10;;;0.70;99.90;;;;;;5038921;28;20200;-54
2023/02/26 08:28:27;;;;;;;3.73;0.70;;;0.70;99.90;;;;;;5042746;28;20274;-58
2023/02/26 08:30:54;;;;;;;2.23;0.93;;;0.80;99.90;;;;;;5041182;28;20228;-59
2023/02/26 08:33:21;;;;;;;4.07;1.03;;;0.80;99.90;;;;;;5052243;28;20203;-50
2023/02/26 08:35:50;;;;;;;1.37;0.80;;;0.90;99.90;;;;;;5038553;28;20200;-51
2023/02/26 08:38:17;;;;;;;0.93;0.77;;;0.90;99.90;;;;;;5053351;28;20202;-54
2023/02/26 08:40:44;;;;;;;4.57;1.30;;;0.90;99.90;;;;;;5051468;28;20219;-55
2023/02/26 08:43:11;;;;;;;3.20;1.27;;;1.00;99.90;;;;;;5047784;28;20210;-51
2023/02/26 08:45:38;;;;;;;2.27;1.20;;;1.10;99.90;;;;;;5046434;28;20200;-60
2023/02/26 08:48:05;;;;;;;3.90;1.10;;;1.10;99.90;;;;;;5055343;28;20214;-55
2023/02/26 08:50:32;;;;;;;0.80;0.80;;;1.20;99.90;;;;;;5049871;28;20236;-60
2023/02/26 08:53:00;;;;;;;1.97;1.00;;;1.20;99.90;;;;;;5052385;28;20322;-51
2023/02/26 08:55:27;;;;;;;3.37;1.10;;;1.30;99.90;;;;;;5048037;28;20202;-59
2023/02/26 08:57:54;;;;;;;2.73;1.00;;;1.40;99.90;;;;;;5049818;28;20944;-54
2023/02/26 09:00:21;;;;;;;1.00;0.90;;;1.60;99.90;;;;;;5055745;28;20333;-53
2023/02/26 09:02:48;;;;;;;1.03;0.77;;;1.70;99.90;;;;;;5035670;28;20194;-54
2023/02/26 09:05:15;;;;;;;5.27;0.97;;;1.90;99.90;;;;;;5047568;28;20214;-55
2023/02/26 09:07:42;;;;;;;1.43;0.60;;;2.00;99.90;;;;;;5035576;28;20218;-58
2023/02/26 09:10:12;;;;;;;1.77;0.97;;;2.10;99.90;;;;;;5052106;28;20214;-50
2023/02/26 09:12:39;;;;;;;2.73;0.47;;;2.20;99.90;;;;;;5045978;28;20226;-59
2023/02/26 09:15:08;;;;;;;1.00;0.50;;;2.30;99.90;;;;;;5045275;28;20591;-54
2023/02/26 09:17:36;;;;;;;0.73;0.40;;;2.30;99.90;;;;;;5036456;28;20206;-59
2023/02/26 09:20:03;;;;;;;1.90;0.70;;;2.30;99.90;;;;;;5042177;28;20242;-53
2023/02/26 09:22:30;;;;;;;1.23;0.90;;;2.30;99.90;;;;;;5041208;28;20204;-59
2023/02/26 09:24:57;;;;;;;1.13;0.40;;;2.30;99.90;;;;;;5055569;28;20255;-53
2023/02/26 09:27:25;;;;;;;2.83;0.47;;;2.30;99.90;;;;;;5053362;28;20224;-59
2023/02/26 09:29:52;;;;;;;2.23;0.60;;;2.30;99.90;;;;;;5049495;28;20225;-51
2023/02/26 09:32:19;;;;;;;1.33;0.60;;;2.30;99.90;;;;;;5042518;28;20569;-52
2023/02/26 09:34:45;;;;;;;1.60;0.30;;;2.30;99.90;;;;;;5045989;28;20884;-52
2023/02/26 09:37:12;;;;;;;1.00;0.50;;;2.40;99.90;;;;;;5048627;28;20202;-52
2023/02/26 09:39:39;;;;;;;2.53;0.60;;;2.40;99.90;;;;;;5035658;28;20207;-58
2023/02/26 09:42:17;;;;;;;1.13;0.40;;;2.40;99.90;;;;;;5049181;28;21758;-51
2023/02/26 09:44:47;;;;;;;2.80;0.67;;;2.40;99.90;;;;;;5047397;28;20202;-51
2023/02/26 09:47:19;;;;;;;2.00;0.50;;;2.40;99.90;;;;;;5052040;28;20195;-50
2023/02/26 09:49:54;;;;;;;1.87;0.50;;;2.40;99.90;;;;;;5045820;28;20204;-54
2023/02/26 09:52:25;;;;;;;2.57;0.80;;;2.40;99.90;;;;;;5048035;28;20278;-56
2023/02/26 09:54:56;;;;;;;1.27;0.27;;;2.60;99.90;;;;;;5041033;28;21056;-55
2023/02/26 09:57:30;;;;;;;2.63;0.70;;;2.60;99.90;;;;;;5057061;28;20282;-53
2023/02/26 10:00:01;;;;;;;2.57;0.60;;;2.70;99.90;;;;;;5049878;28;20946;-52
2023/02/26 10:02:45;;;;;;;3.77;0.30;;;2.80;99.90;;;;;;5050266;28;20194;-59
2023/02/26 10:05:19;;;;;;;2.73;0.60;;;2.90;99.90;;;;;;5049316;28;20199;-54
2023/02/26 10:07:55;;;;;;;0.70;0.50;;;3.00;99.90;;;;;;5036480;28;20524;-57
2023/02/26 10:10:33;;;;;;;2.27;0.80;;;3.00;99.90;;;;;;5054347;28;20222;-53
2023/02/26 10:13:00;;;;;;;1.20;0.60;;;3.00;99.90;;;;;;5050991;28;20942;-56
2023/02/26 10:15:35;;;;;;;2.20;0.50;;;3.00;99.90;;;;;;5054689;28;20210;-60
2023/02/26 10:18:09;;;;;;;2.33;0.37;;;3.00;99.90;;;;;;5045069;28;20202;-53
2023/02/26 10:20:42;;;;;;;2.13;0.53;;;3.00;99.90;;;;;;5041148;28;20246;-58
2023/02/26 10:23:19;;;;;;;1.50;0.63;;;3.00;99.90;;;;;;5036762;28;20195;-50
2023/02/26 10:25:51;;;;;;;4.40;0.50;;;3.00;99.90;;;;;;5049220;28;20187;-53
2023/02/26 10:28:34;;;;;;;1.50;0.50;;;3.00;99.90;;;;;;5053426;28;20755;-54
2023/02/26 10:31:06;;;;;;;0.90;0.57;;;3.00;99.90;;;;;;5051547;28;20219;-52
2023/02/26 10:33:40;;;;;;;1.07;0.70;;;3.00;99.90;;;;;;5045719;28;20191;-59
2023/02/26 10:36:17;;;;;;;1.53;0.53;;;3.10;99.90;;;;;;5060026;28;20206;-50
2023/02/26 10:38:48;;;;;;;2.53;0.57;;;3.10;99.90;;;;;;5036769;28;20634;-55
2023/02/26 10:41:20;;;;;;;0.80;0.43;;;3.20;99.90;;;;;;5050166;28;20219;-52
2023/02/26 10:43:52;;;;;;;1.53;1.03;;;3.20;99.90;;;;;;5054912;28;20205;-51
2023/02/26 10:46:29;;;;;;;0.80;0.40;;;3.20;99.90;;;;;;5056234;28;20203;-49
2023/02/26 10:49:22;;;;;;;2.63;0.67;;;3.20;99.90;;;;;;5050798;28;20230;-56
2023/02/26 10:51:51;;;;;;;3.10;0.80;;;3.30;99.90;;;;;;5041747;28;20966;-51
2023/02/26 10:54:23;;;;;;;1.23;0.73;;;3.30;99.90;;;;;;5053645;28;20649;-51
2023/02/26 10:56:50;;;;;;;1.67;0.60;;;3.40;99.90;;;;;;5041790;28;20199;-50
2023/02/26 10:59:18;;;;;;;0.50;0.50;;;3.50;99.90;;;;;;5060346;28;20203;-52
2023/02/26 11:01:48;;;;;;;2.30;0.80;;;3.50;99.90;;;;;;5048293;28;20225;-55
2023/02/26 11:04:37;;;;;;;1.67;0.80;;;3.70;99.90;;;;;;5051506;28;20380;-57
2023/02/26 11:07:06;;;;;;;1.97;0.80;;;3.80;99.90;;;;;;5043826;28;20213;-54
2023/02/26 11:09:36;;;;;;;0.40;0.30;;;3.70;99.90;;;;;;5046215;28;20221;-57
2023/02/26 11:12:06;;;;;;;1.50;0.40;;;3.80;99.90;;;;;;5035952;28;20855;-58
2023/02/26 11:14:33;;;;;;;1.83;0.50;;;3.70;99.90;;;;;;5055111;28;20211;-57
2023/02/26 11:17:05;;;;;;;0.97;0.50;;;3.90;99.90;;;;;;5048958;28;20352;-51
2023/02/26 11:19:36;;;;;;;1.87;0.43;;;3.90;99.90;;;;;;5047630;28;20210;-57
2023/02/26 11:22:04;;;;;;;2.37;1.20;;;3.90;99.90;;;;;;5043813;28;20223;-52
2023/02/26 11:24:35;;;;;;;2.00;0.60;;;4.00;99.90;;;;;;5044330;28;20221;-57
2023/02/26 11:27:04;;;;;;;2.43;1.43;;;4.00;99.90;;;;;;5043547;28;20277;-51
2023/02/26 11:29:37;;;;;;;1.50;0.73;;;3.90;99.90;;;;;;5053346;28;20780;-57
2023/02/26 11:32:07;;;;;;;1.23;0.70;;;3.80;99.90;;;;;;5050079;28;20275;-53
2023/02/26 11:34:37;;;;;;;2.60;0.70;;;3.70;99.90;;;;;;5046848;28;20207;-56
2023/02/26 11:37:05;;;;;;;2.30;0.97;;;3.70;99.90;;;;;;5049561;28;20195;-55
2023/02/26 11:39:36;;;;;;;1.50;0.80;;;3.80;99.90;;;;;;5043419;28;20226;-57
2023/02/26 11:42:06;;;;;;;2.67;0.77;;;3.80;99.90;;;;;;5037818;28;20199;-54
2023/02/26 11:44:38;;;;;;;2.03;0.80;;;3.80;99.90;;;;;;5049610;28;20199;-56
2023/02/26 11:47:11;;;;;;;2.67;0.60;;;3.80;99.90;;;;;;5047787;28;20198;-55
2023/02/26 11:49:42;;;;;;;2.33;0.90;;;3.70;99.90;;;;;;5052931;28;20218;-58
2023/02/26 11:52:30;;;;;;;2.20;0.87;;;3.70;99.90;;;;;;5045280;28;20684;-58
2023/02/26 11:55:01;;;;;;;1.70;0.77;;;3.70;99.90;;;;;;5041811;28;20712;-53
2023/02/26 11:57:31;;;;;;;2.77;0.80;;;3.80;99.90;;;;;;5038205;28;20207;-58
2023/02/26 12:00:00;;;;;;;1.87;0.83;;;3.90;99.90;;;;;;5048682;28;20187;-53
2023/02/26 12:02:34;;;;;;;2.77;1.10;;;4.00;99.90;;;;;;5053207;28;20194;-58
2023/02/26 12:05:06;;;;;;;2.10;0.90;;;4.10;99.90;;;;;;5048236;28;20926;-50
2023/02/26 12:07:32;;;;;;;4.50;0.90;;;4.10;99.90;;;;;;5046520;28;20195;-59
2023/02/26 12:09:59;;;;;;;1.43;0.73;;;4.10;99.90;;;;;;5041263;28;20221;-53
2023/02/26 12:12:55;;;;;;;2.03;0.93;;;4.10;99.90;;;;;;5046007;28;20210;-59
2023/02/26 12:15:31;;;;;;;1.50;0.90;;;4.10;99.90;;;;;;5056013;28;20286;-49
2023/02/26 12:18:21;;;;;;;4.07;1.00;;;4.10;99.90;;;;;;5048019;28;20838;-54
2023/02/26 12:21:05;;;;;;;1.27;0.40;;;4.10;99.90;;;;;;5046823;28;21010;-50
2023/02/26 12:23:59;;;;;;;4.33;0.83;;;4.10;99.90;;;;;;5040695;28;20199;-54
2023/02/26 12:26:33;;;;;;;1.80;0.70;;;4.10;99.90;;;;;;5043913;28;20733;-55
2023/02/26 12:29:26;;;;;;;2.30;1.07;;;4.20;99.90;;;;;;5038695;28;20222;-58
2023/02/26 12:32:11;;;;;;;3.47;0.87;;;4.20;99.90;;;;;;5049761;28;20230;-55
2023/02/26 12:35:05;;;;;;;1.20;0.53;;;4.20;99.90;;;;;;5050919;28;20195;-52
2023/02/26 12:37:49;;;;;;;0.83;0.80;;;4.20;99.90;;;;;;5040053;28;20286;-52
2023/02/26 12:40:43;;;;;;;2.43;0.67;;;4.20;99.90;;;;;;5040715;28;20578;-59
2023/02/26 12:43:15;;;;;;;1.70;0.73;;;4.20;99.90;;;;;;5028200;28;20206;-57
2023/02/26 12:45:54;;;;;;;3.37;0.67;;;4.20;99.90;;;;;;5047218;28;20199;-51
2023/02/26 12:48:39;;;;;;;2.10;0.53;;;4.20;99.90;;;;;;5046169;28;20222;-49
2023/02/26 12:51:14;;;;;;;1.97;0.80;;;4.20;99.90;;;;;;5051792;28;20241;-58
2023/02/26 12:54:06;;;;;;;1.23;0.50;;;4.20;99.90;;;;;;5051190;28;20217;-51
2023/02/26 12:57:04;;;;;;;1.87;0.63;;;4.20;99.90;;;;;;5038028;28;20333;-52
2023/02/26 12:59:47;;;;;;;1.40;0.70;;;4.30;99.90;;;;;;5029952;28;20738;-53
2023/02/26 13:02:47;;;;;;;3.93;0.60;;;4.40;99.90;;;;;;5045637;28;20191;-57
2023/02/26 13:05:28;;;;;;;2.63;0.57;;;4.50;99.90;;;;;;5049459;28;20195;-59
2023/02/26 13:08:08;;;;;;;1.10;0.50;;;4.40;99.90;;;;;;5050326;28;20195;-51
2023/02/26 13:10:48;;;;;;;3.53;0.73;;;4.50;99.90;;;;;;5044486;28;20448;-50
2023/02/26 13:13:39;;;;;;;1.70;0.70;;;4.50;99.90;;;;;;5041179;28;20195;-59